createdAt,value
2019-02-20T00:04:17.188Z,3.10
2019-02-20T00:06:45.778Z,3.50
2019-02-20T00:09:14.304Z,3.00
2019-02-20T00:11:42.876Z,3.00
2019-02-20T00:14:11.425Z,2.70
2019-02-20T00:16:40.004Z,3.00
2019-02-20T00:19:08.540Z,3.00
2019-02-20T00:24:05.396Z,2.60
2019-02-20T00:26:33.973Z,2.60
2019-02-20T00:29:02.513Z,2.60
2019-02-20T00:31:31.086Z,2.60
2019-02-20T00:33:59.630Z,2.50
2019-02-20T00:36:28.196Z,2.50
2019-02-20T00:41:24.989Z,2.70
2019-02-20T00:43:55.176Z,2.60
2019-02-20T00:46:25.392Z,2.60
2019-02-20T01:01:26.029Z,2.20
2019-02-20T01:03:54.604Z,2.20
2019-02-20T01:06:23.152Z,2.20
2019-02-20T01:08:51.723Z,2.30
2019-02-20T01:21:13.188Z,2.00
2019-02-20T01:26:09.980Z,2.10
2019-02-20T01:31:06.838Z,1.90
2019-02-20T01:33:35.408Z,1.90
2019-02-20T01:36:03.953Z,1.90
2019-02-20T01:38:32.523Z,1.90
2019-02-20T01:41:01.064Z,1.80
2019-02-20T01:43:29.645Z,1.80
2019-02-20T01:48:26.441Z,1.80
2019-02-20T01:55:51.448Z,1.70
2019-02-20T01:58:19.988Z,1.70
2019-02-20T02:03:16.781Z,1.80
2019-02-20T02:05:45.353Z,1.80
2019-02-20T02:08:13.893Z,1.80
2019-02-20T02:10:42.528Z,1.80
2019-02-20T02:15:39.330Z,1.70
2019-02-20T02:25:32.734Z,1.70
2019-02-20T02:32:57.744Z,1.60
2019-02-20T02:37:54.618Z,1.50
2019-02-20T02:40:23.197Z,1.60
2019-02-20T02:55:13.072Z,1.30
2019-02-20T04:11:51.981Z,0.60
2019-02-20T05:35:54.293Z,0.60
2019-02-20T06:17:55.014Z,0.70
2019-02-20T09:19:34.877Z,1.90
2019-02-20T10:04:05.205Z,3.20
2019-02-20T10:06:33.748Z,3.30
2019-02-20T10:09:02.297Z,3.50
2019-02-20T10:11:30.905Z,3.60
2019-02-20T10:16:27.693Z,3.80
2019-02-20T10:18:56.238Z,4.00
2019-02-20T10:21:24.817Z,4.10
2019-02-20T10:23:53.365Z,4.10
2019-02-20T10:26:21.944Z,4.20
2019-02-20T10:28:50.516Z,4.30
2019-02-20T10:33:47.311Z,4.30
2019-02-20T10:36:15.890Z,4.40
2019-02-20T10:38:44.457Z,4.70
2019-02-20T10:41:13.033Z,4.90
2019-02-20T10:43:41.601Z,5.30
2019-02-20T10:46:10.165Z,4.80
2019-02-20T10:48:38.712Z,5.10
2019-02-20T10:51:07.286Z,5.30
2019-02-20T10:53:35.861Z,5.10
2019-02-20T10:56:09.362Z,5.10
2019-02-20T10:58:34.673Z,5.20
2019-02-20T11:01:03.447Z,5.40
2019-02-20T11:03:32.005Z,5.50
2019-02-20T11:06:00.601Z,5.90
2019-02-20T11:08:30.429Z,5.50
2019-02-20T11:10:59.056Z,5.50
2019-02-20T11:13:27.625Z,5.70
2019-02-20T11:15:56.192Z,5.80
2019-02-20T11:18:24.744Z,6.00
2019-02-20T11:20:53.346Z,5.70
2019-02-20T11:23:21.913Z,6.00
2019-02-20T11:28:26.637Z,6.20
2019-02-20T11:30:48.952Z,6.30
2019-02-20T11:33:17.693Z,6.30
2019-02-20T11:35:46.289Z,6.70
2019-02-20T11:38:14.932Z,6.80
2019-02-20T11:40:43.480Z,6.70
2019-02-20T11:43:12.080Z,6.90
2019-02-20T11:45:40.640Z,7.30
2019-02-20T11:48:09.226Z,7.20
2019-02-20T11:50:37.791Z,7.30
2019-02-20T11:53:06.357Z,7.40
2019-02-20T12:05:28.067Z,7.60
2019-02-20T12:07:56.629Z,8.00
2019-02-20T12:10:25.266Z,7.80
2019-02-20T12:12:53.929Z,8.00
2019-02-20T12:15:22.471Z,8.20
2019-02-20T12:18:03.236Z,8.20
2019-02-20T12:25:28.657Z,8.90
2019-02-20T12:27:57.251Z,9.10
2019-02-20T12:30:25.794Z,8.80
2019-02-20T12:32:54.368Z,8.70
2019-02-20T12:35:23.014Z,8.60
2019-02-20T12:37:51.681Z,8.70
2019-02-20T12:40:20.259Z,8.90
2019-02-20T12:42:48.828Z,9.60
2019-02-20T12:45:17.469Z,8.90
2019-02-20T12:47:46.065Z,9.00
2019-02-20T12:50:15.446Z,9.10
2019-02-20T12:52:44.040Z,8.90
2019-02-20T13:00:14.561Z,9.00
2019-02-20T13:05:11.432Z,9.60
2019-02-20T13:07:39.982Z,8.90
2019-02-20T13:10:09.617Z,9.20
2019-02-20T13:12:38.285Z,9.20
2019-02-20T13:15:11.902Z,9.20
2019-02-20T13:17:40.460Z,9.10
2019-02-20T13:20:10.482Z,9.30
2019-02-20T13:22:39.294Z,9.40
2019-02-20T13:25:09.229Z,9.40
2019-02-20T13:27:37.861Z,9.40
2019-02-20T13:30:09.536Z,9.30
2019-02-20T13:32:38.097Z,9.50
2019-02-20T13:35:07.333Z,9.40
2019-02-20T13:37:35.876Z,9.10
2019-02-20T13:40:05.588Z,9.20
2019-02-20T13:42:34.160Z,9.40
2019-02-20T13:45:02.801Z,9.50
2019-02-20T13:47:31.352Z,9.50
2019-02-20T13:49:59.924Z,9.40
2019-02-20T13:54:57.757Z,9.60
2019-02-20T13:57:26.363Z,9.30
2019-02-20T13:59:54.948Z,9.80
2019-02-20T14:02:23.493Z,9.70
2019-02-20T14:07:20.372Z,9.60
2019-02-20T14:09:48.936Z,9.60
2019-02-20T14:12:17.879Z,9.50
2019-02-20T14:14:46.451Z,9.70
2019-02-20T14:17:15.084Z,9.80
2019-02-20T14:19:43.654Z,9.80
2019-02-20T14:24:40.444Z,9.60
2019-02-20T14:27:11.040Z,9.80
2019-02-20T14:29:39.449Z,9.90
2019-02-20T14:32:07.982Z,9.40
2019-02-20T14:34:36.548Z,9.50
2019-02-20T14:37:05.093Z,9.80
2019-02-20T14:42:01.871Z,9.90
2019-02-20T14:44:30.745Z,9.40
2019-02-20T14:46:59.304Z,9.40
2019-02-20T14:49:27.872Z,9.40
2019-02-20T14:51:56.432Z,9.40
2019-02-20T14:54:24.996Z,9.50
2019-02-20T14:56:53.580Z,9.50
2019-02-20T14:59:22.187Z,9.50
2019-02-20T15:01:51.249Z,9.70
2019-02-20T15:04:19.806Z,9.70
2019-02-20T15:06:48.370Z,9.50
2019-02-20T15:09:17.004Z,9.60
2019-02-20T15:11:45.676Z,9.60
2019-02-20T15:14:16.082Z,9.20
2019-02-20T15:16:44.476Z,9.30
2019-02-20T15:19:13.014Z,9.30
2019-02-20T15:21:41.605Z,9.30
2019-02-20T15:24:10.216Z,9.40
2019-02-20T15:26:38.809Z,9.50
2019-02-20T15:29:07.432Z,9.40
2019-02-20T15:31:36.021Z,9.80
2019-02-20T15:34:04.985Z,9.20
2019-02-20T15:36:33.644Z,9.60
2019-02-20T15:39:02.253Z,9.40
2019-02-20T15:41:30.824Z,9.20
2019-02-20T15:43:59.388Z,9.30
2019-02-20T15:46:27.956Z,9.30
2019-02-20T15:51:25.186Z,9.70
2019-02-20T15:53:53.793Z,9.20
2019-02-20T15:56:22.364Z,9.00
2019-02-20T15:58:50.933Z,8.90
2019-02-20T16:01:19.521Z,9.10
2019-02-20T16:03:48.084Z,8.90
2019-02-20T16:11:13.157Z,8.80
2019-02-20T16:13:41.748Z,8.80
2019-02-20T16:16:10.314Z,8.70
2019-02-20T16:18:38.902Z,8.80
2019-02-20T16:21:07.436Z,8.80
2019-02-20T16:23:36.009Z,8.80
2019-02-20T16:26:04.553Z,8.40
2019-02-20T16:28:34.009Z,8.30
2019-02-20T16:31:02.864Z,8.30
2019-02-20T16:33:31.456Z,8.40
2019-02-20T16:36:00.003Z,8.40
2019-02-20T16:38:28.568Z,8.50
2019-02-20T16:40:57.585Z,8.50
2019-02-20T16:43:26.153Z,8.30
2019-02-20T16:45:54.742Z,8.00
2019-02-20T16:48:23.368Z,7.80
2019-02-20T16:50:51.933Z,8.30
2019-02-20T16:53:20.592Z,7.90
2019-02-20T16:55:49.161Z,8.00
2019-02-20T16:58:18.125Z,8.00
2019-02-20T17:00:46.761Z,7.90
2019-02-20T17:03:15.498Z,8.00
2019-02-20T17:05:44.029Z,8.20
2019-02-20T17:08:12.692Z,7.70
2019-02-20T17:10:41.298Z,7.60
2019-02-20T17:13:10.021Z,7.30
2019-02-20T17:18:06.988Z,7.50
2019-02-20T17:20:35.520Z,7.30
2019-02-20T17:23:04.097Z,7.40
2019-02-20T17:25:32.637Z,7.60
2019-02-20T17:28:05.676Z,7.60
2019-02-20T17:30:31.661Z,7.40
2019-02-20T17:33:00.297Z,7.20
2019-02-20T17:35:28.913Z,7.40
2019-02-20T17:37:57.557Z,6.80
2019-02-20T17:40:26.098Z,7.20
2019-02-20T17:42:55.265Z,7.10
2019-02-20T17:45:24.096Z,6.90
2019-02-20T17:47:52.640Z,6.70
2019-02-20T17:50:25.232Z,6.70
2019-02-20T17:52:53.872Z,7.10
2019-02-20T17:55:22.541Z,6.70
2019-02-20T17:57:51.143Z,6.70
2019-02-20T18:00:21.807Z,6.60
2019-02-20T18:02:50.336Z,7.30
2019-02-20T18:05:18.918Z,6.60
2019-02-20T18:10:17.342Z,6.50
2019-02-20T18:12:45.900Z,6.50
2019-02-20T18:15:15.005Z,6.70
2019-02-20T18:17:43.550Z,6.70
2019-02-20T18:20:12.384Z,6.60
2019-02-20T18:22:41.017Z,6.60
2019-02-20T18:25:11.027Z,6.70
2019-02-20T18:32:40.216Z,6.20
2019-02-20T18:35:11.149Z,6.20
2019-02-20T18:37:39.695Z,6.10
2019-02-20T18:40:11.112Z,6.10
2019-02-20T18:42:39.679Z,6.10
2019-02-20T18:45:13.425Z,6.00
2019-02-20T18:47:42.102Z,6.30
2019-02-20T18:50:14.972Z,6.20
2019-02-20T18:52:43.652Z,6.40
2019-02-20T18:55:13.453Z,6.30
2019-02-20T18:57:42.062Z,6.10
2019-02-20T19:00:13.418Z,6.10
2019-02-20T19:02:42.029Z,6.20
2019-02-20T19:05:11.470Z,6.10
2019-02-20T19:07:40.016Z,6.00
2019-02-20T19:10:11.659Z,6.10
2019-02-20T19:13:00.120Z,5.90
2019-02-20T19:20:53.657Z,5.80
2019-02-20T19:23:37.144Z,5.50
2019-02-20T19:26:11.646Z,5.80
2019-02-20T19:28:52.228Z,5.40
2019-02-20T19:31:40.334Z,5.50
2019-02-20T19:34:42.215Z,5.30
2019-02-20T19:37:25.811Z,5.60
2019-02-20T19:40:12.417Z,5.30
2019-02-20T19:42:58.901Z,5.50
2019-02-20T19:45:35.892Z,5.70
2019-02-20T19:50:55.244Z,5.20
2019-02-20T19:53:29.585Z,5.20
2019-02-20T19:56:16.172Z,5.80
2019-02-20T19:58:57.943Z,5.20
2019-02-20T20:01:49.557Z,5.20
2019-02-20T20:04:27.144Z,5.80
2019-02-20T20:07:21.330Z,5.70
2019-02-20T20:10:13.596Z,5.20
2019-02-20T20:12:47.411Z,5.30
2019-02-20T20:15:21.088Z,5.60
2019-02-20T20:20:40.441Z,5.00
2019-02-20T20:25:44.577Z,5.20
2019-02-20T20:28:31.211Z,4.90
2019-02-20T20:31:02.833Z,4.90
2019-02-20T20:33:40.376Z,4.80
2019-02-20T20:36:31.368Z,4.80
2019-02-20T20:39:19.366Z,5.00
2019-02-20T20:44:52.312Z,5.50
2019-02-20T20:47:54.329Z,5.00
2019-02-20T20:50:31.752Z,4.70
2019-02-20T20:55:58.824Z,5.30
2019-02-20T20:58:36.343Z,4.70
2019-02-20T21:03:37.864Z,4.80
2019-02-20T21:08:39.500Z,4.60
2019-02-20T21:19:21.845Z,4.60
2019-02-20T21:21:58.989Z,4.40
2019-02-20T21:27:09.625Z,4.60
2019-02-20T21:32:27.716Z,5.00
2019-02-20T21:35:16.740Z,4.50
2019-02-20T21:37:54.293Z,4.70
2019-02-20T21:40:49.840Z,4.30
2019-02-20T21:43:56.445Z,4.60
2019-02-20T21:46:33.940Z,4.90
2019-02-20T21:49:16.820Z,4.40
2019-02-20T21:52:00.109Z,4.40
2019-02-20T21:54:52.521Z,4.40
2019-02-20T21:57:29.952Z,4.20
2019-02-20T22:02:48.904Z,4.30
2019-02-20T22:05:23.459Z,4.80
2019-02-20T22:08:01.172Z,4.30
2019-02-20T22:10:52.654Z,4.50
2019-02-20T22:13:27.196Z,4.20
2019-02-20T22:16:07.400Z,4.30
2019-02-20T22:18:55.631Z,5.00
2019-02-20T22:21:51.533Z,5.00
2019-02-20T22:24:26.184Z,4.50
2019-02-20T22:27:10.026Z,4.60
2019-02-20T22:32:33.972Z,5.10
2019-02-20T22:35:11.744Z,4.30
2019-02-20T22:37:59.977Z,4.50
2019-02-20T22:45:53.429Z,4.60
2019-02-20T22:48:37.193Z,4.50
2019-02-20T22:51:32.762Z,4.60
2019-02-20T22:54:22.670Z,4.40
2019-02-20T22:57:10.733Z,4.40
2019-02-20T23:00:10.896Z,4.50
2019-02-20T23:02:58.902Z,4.30
2019-02-20T23:05:30.605Z,4.50
2019-02-20T23:08:14.130Z,4.50
2019-02-20T23:13:30.384Z,4.30
2019-02-20T23:15:58.957Z,4.60
2019-02-20T23:18:27.492Z,4.30
2019-02-20T23:20:56.089Z,4.40
2019-02-20T23:23:24.609Z,4.10
2019-02-20T23:25:53.186Z,3.80
2019-02-20T23:28:21.724Z,4.60
2019-02-20T23:33:34.988Z,4.00
2019-02-20T23:36:03.555Z,3.70
2019-02-20T23:38:32.129Z,3.80
2019-02-20T23:45:57.157Z,3.70
2019-02-20T23:48:25.757Z,3.60
2019-02-20T23:50:54.302Z,3.70
2019-02-20T23:53:22.869Z,3.70
